Time;durP1;ratioP1;P1;durP2;ratioP2;P2;SDS_P1;SDS_P2;PMS_P1;PMS_P2;Temp;Humidity;BMP_temperature;BMP_pressure;BME280_temperature;BME280_humidity;BME280_pressure;Samples;Min_cycle;Max_cycle;Signal;HPM_P1;HPM_P2
2022/09/22 00:00:43;;;;;;;0.40;0.40;;;8.10;99.90;;;;;;5114587;28;20639;-77
2022/09/22 00:03:09;;;;;;;0.50;0.50;;;8.00;99.90;;;;;;5114469;28;20463;-77
2022/09/22 00:05:36;;;;;;;1.50;0.40;;;8.00;99.90;;;;;;5114739;28;20205;-77
2022/09/22 00:08:03;;;;;;;0.50;0.50;;;7.90;99.90;;;;;;5114670;28;20483;-77
2022/09/22 00:10:31;;;;;;;0.60;0.50;;;8.00;99.90;;;;;;5114696;28;20446;-77
2022/09/22 00:12:58;;;;;;;1.47;0.63;;;8.00;99.90;;;;;;5114549;28;20463;-77
2022/09/22 00:15:24;;;;;;;0.30;0.20;;;8.00;99.90;;;;;;5114625;28;20447;-77
2022/09/22 00:17:51;;;;;;;0.40;0.30;;;7.90;99.90;;;;;;5114531;28;20462;-77
2022/09/22 00:20:18;;;;;;;0.50;0.40;;;7.90;99.90;;;;;;5114512;28;20439;-77
2022/09/22 00:22:48;;;;;;;3.90;0.67;;;8.00;99.90;;;;;;5114077;28;20993;-77
2022/09/22 00:25:16;;;;;;;1.07;0.60;;;7.90;99.90;;;;;;5114140;28;20435;-77
2022/09/22 00:27:44;;;;;;;0.30;0.30;;;7.90;99.90;;;;;;5114006;28;20533;-77
2022/09/22 00:30:12;;;;;;;0.33;0.33;;;7.90;99.90;;;;;;5114317;28;20205;-77
2022/09/22 00:32:39;;;;;;;0.40;0.33;;;7.90;99.90;;;;;;5114268;28;20478;-77
2022/09/22 00:35:07;;;;;;;0.40;0.40;;;7.90;99.90;;;;;;5114265;28;20467;-77
2022/09/22 00:37:33;;;;;;;0.40;0.40;;;7.90;99.90;;;;;;5114216;28;20504;-77
2022/09/22 00:40:00;;;;;;;0.40;0.33;;;7.90;99.90;;;;;;5114117;28;20212;-77
2022/09/22 00:42:27;;;;;;;2.00;0.40;;;7.90;99.90;;;;;;5114174;28;20453;-78
2022/09/22 00:44:55;;;;;;;0.90;0.60;;;7.80;99.90;;;;;;5114049;28;20550;-78
2022/09/22 00:47:29;;;;;;;1.37;0.70;;;7.80;99.90;;;;;;5114049;28;20443;-78
2022/09/22 00:50:00;;;;;;;0.60;0.40;;;7.80;99.90;;;;;;5114004;28;20471;-78
2022/09/22 00:52:30;;;;;;;0.40;0.33;;;7.80;99.90;;;;;;5114063;28;20791;-78
2022/09/22 00:55:00;;;;;;;0.50;0.30;;;7.70;99.90;;;;;;5113678;28;20934;-77
2022/09/22 00:57:31;;;;;;;1.57;0.67;;;7.60;99.90;;;;;;5113963;28;20843;-77
2022/09/22 01:00:01;;;;;;;0.40;0.40;;;7.60;99.90;;;;;;5113944;28;20431;-77
2022/09/22 01:02:28;;;;;;;0.50;0.50;;;7.60;99.90;;;;;;5113786;28;20897;-77
2022/09/22 01:04:54;;;;;;;0.33;0.33;;;7.60;99.90;;;;;;5113811;28;20467;-77
2022/09/22 01:07:24;;;;;;;0.40;0.40;;;7.60;99.90;;;;;;5113856;28;20453;-77
2022/09/22 01:09:52;;;;;;;0.40;0.30;;;7.60;99.90;;;;;;5113777;28;20497;-77
2022/09/22 01:12:19;;;;;;;0.50;0.40;;;7.60;99.90;;;;;;5113476;28;20254;-77
2022/09/22 01:14:58;;;;;;;0.60;0.40;;;7.60;99.90;;;;;;5113679;28;20463;-77
2022/09/22 01:17:35;;;;;;;1.77;0.50;;;7.60;99.90;;;;;;5113783;28;20436;-77
2022/09/22 01:20:33;;;;;;;0.53;0.53;;;7.50;99.90;;;;;;5113776;28;20428;-78
2022/09/22 01:23:20;;;;;;;0.40;0.33;;;7.50;99.90;;;;;;5113654;28;20485;-78
2022/09/22 01:26:12;;;;;;;1.10;0.63;;;7.50;99.90;;;;;;5113368;28;20922;-78
2022/09/22 01:29:03;;;;;;;0.30;0.30;;;7.40;99.90;;;;;;5113171;28;20487;-78
2022/09/22 01:31:37;;;;;;;0.40;0.30;;;7.50;99.90;;;;;;5113631;28;20423;-77
2022/09/22 01:34:11;;;;;;;0.30;0.30;;;7.40;99.90;;;;;;5113524;28;20466;-77
2022/09/22 01:36:44;;;;;;;1.88;0.40;;;7.40;99.90;;;;;;5114461;28;20431;-77
2022/09/22 01:39:17;;;;;;;0.40;0.30;;;7.40;99.90;;;;;;5113587;28;20535;-78
2022/09/22 01:41:51;;;;;;;0.50;0.43;;;7.40;99.90;;;;;;5113557;28;20442;-78
2022/09/22 01:44:25;;;;;;;0.40;0.40;;;7.30;99.90;;;;;;5113475;28;20520;-78
2022/09/22 01:46:56;;;;;;;0.43;0.43;;;7.30;99.90;;;;;;5113483;28;20430;-78
2022/09/22 01:49:27;;;;;;;0.63;0.40;;;7.20;99.90;;;;;;5113449;28;20463;-78
2022/09/22 01:51:58;;;;;;;0.63;0.53;;;7.30;99.90;;;;;;5114533;28;20427;-78
2022/09/22 01:54:31;;;;;;;0.50;0.40;;;7.30;99.90;;;;;;5117347;28;20466;-77
2022/09/22 01:57:03;;;;;;;0.40;0.40;;;7.20;99.90;;;;;;5117405;28;20437;-77
2022/09/22 01:59:33;;;;;;;1.10;0.60;;;7.20;99.90;;;;;;5117290;28;20420;-77
2022/09/22 02:02:04;;;;;;;0.30;0.30;;;7.30;99.90;;;;;;5117696;28;20446;-78
2022/09/22 02:04:35;;;;;;;0.40;0.40;;;7.20;99.90;;;;;;5116827;28;21001;-78
2022/09/22 02:07:05;;;;;;;0.98;0.50;;;7.20;99.90;;;;;;5117232;28;20423;-77
2022/09/22 02:09:33;;;;;;;1.33;0.75;;;7.30;99.90;;;;;;5117009;28;20217;-77
2022/09/22 02:12:02;;;;;;;4.27;0.83;;;7.30;99.90;;;;;;5117038;28;20227;-77
2022/09/22 02:14:29;;;;;;;0.60;0.40;;;7.30;99.90;;;;;;5116940;28;20473;-77
2022/09/22 02:16:56;;;;;;;0.47;0.47;;;7.30;99.90;;;;;;5116916;28;20443;-77
2022/09/22 02:19:29;;;;;;;0.30;0.30;;;7.30;99.90;;;;;;5116599;28;20466;-77
2022/09/22 02:21:56;;;;;;;0.40;0.40;;;7.20;99.90;;;;;;5116922;28;20428;-77
2022/09/22 02:24:30;;;;;;;0.60;0.60;;;7.20;99.90;;;;;;5116419;28;20823;-77
2022/09/22 02:26:58;;;;;;;0.67;0.40;;;7.10;99.90;;;;;;5116472;28;20454;-78
2022/09/22 02:29:29;;;;;;;0.40;0.40;;;7.10;99.90;;;;;;5116695;28;20459;-77
2022/09/22 02:31:58;;;;;;;0.30;0.30;;;7.00;99.90;;;;;;5116687;28;20427;-77
2022/09/22 02:34:27;;;;;;;0.30;0.30;;;7.00;99.90;;;;;;5116184;28;20474;-77
2022/09/22 02:37:01;;;;;;;0.60;0.53;;;7.00;99.90;;;;;;5116579;28;20443;-78
2022/09/22 02:39:33;;;;;;;0.40;0.30;;;7.00;99.90;;;;;;5116238;28;20494;-78
2022/09/22 02:42:12;;;;;;;4.43;0.70;;;7.00;99.90;;;;;;5116482;28;20488;-77
2022/09/22 02:44:47;;;;;;;0.40;0.40;;;7.00;99.90;;;;;;5116345;28;20465;-78
2022/09/22 02:47:19;;;;;;;0.50;0.50;;;7.10;99.90;;;;;;5116356;28;20431;-77
2022/09/22 02:49:48;;;;;;;0.40;0.40;;;7.10;99.90;;;;;;5116280;28;20463;-77
2022/09/22 02:52:19;;;;;;;0.40;0.40;;;7.00;99.90;;;;;;5116320;28;20443;-77
2022/09/22 02:54:46;;;;;;;0.77;0.77;;;7.00;99.90;;;;;;5116210;28;20463;-77
2022/09/22 02:57:13;;;;;;;0.50;0.40;;;6.90;99.90;;;;;;5116207;28;20885;-77
2022/09/22 02:59:39;;;;;;;0.50;0.50;;;6.90;99.90;;;;;;5116154;28;20488;-77
2022/09/22 03:02:06;;;;;;;0.40;0.40;;;6.90;99.90;;;;;;5115764;28;20957;-78
2022/09/22 03:04:33;;;;;;;0.30;0.30;;;6.90;99.90;;;;;;5114463;28;20985;-77
2022/09/22 03:07:01;;;;;;;0.40;0.30;;;6.90;99.90;;;;;;5115980;28;20521;-77
2022/09/22 03:09:27;;;;;;;0.70;0.30;;;6.80;99.90;;;;;;5115868;28;20562;-77
2022/09/22 03:11:54;;;;;;;0.60;0.50;;;6.80;99.90;;;;;;5115592;28;20961;-78
2022/09/22 03:14:21;;;;;;;0.40;0.35;;;6.80;99.90;;;;;;5115778;28;20463;-78
2022/09/22 03:16:47;;;;;;;0.40;0.33;;;6.80;99.90;;;;;;5115451;28;20197;-78
2022/09/22 03:19:14;;;;;;;1.07;0.87;;;6.70;99.90;;;;;;5115707;28;20447;-78
2022/09/22 03:21:41;;;;;;;1.27;0.83;;;6.60;99.90;;;;;;5115679;28;20453;-78
2022/09/22 03:24:09;;;;;;;1.47;0.50;;;6.70;99.90;;;;;;5115591;28;20466;-78
2022/09/22 03:26:36;;;;;;;0.40;0.40;;;6.60;99.90;;;;;;5115587;28;20451;-78
2022/09/22 03:29:03;;;;;;;0.40;0.40;;;6.60;99.90;;;;;;5115003;28;20237;-78
2022/09/22 03:31:29;;;;;;;2.10;0.90;;;6.70;99.90;;;;;;5115491;28;20443;-78
2022/09/22 03:33:56;;;;;;;0.30;0.20;;;6.60;99.90;;;;;;5115048;28;20474;-78
2022/09/22 03:36:23;;;;;;;0.40;0.30;;;6.60;99.90;;;;;;5115425;28;20205;-78
2022/09/22 03:38:50;;;;;;;0.57;0.40;;;6.70;99.90;;;;;;5115375;28;20526;-78
2022/09/22 03:41:18;;;;;;;0.30;0.30;;;6.70;99.90;;;;;;5114989;28;20494;-77
2022/09/22 03:43:45;;;;;;;0.50;0.50;;;6.60;99.90;;;;;;5115195;28;20463;-77
2022/09/22 03:46:13;;;;;;;1.70;0.63;;;6.60;99.90;;;;;;5115204;28;20443;-77
2022/09/22 03:48:40;;;;;;;0.83;0.40;;;6.70;99.90;;;;;;5115048;28;20447;-77
2022/09/22 03:51:07;;;;;;;0.50;0.40;;;6.80;99.90;;;;;;5115088;28;20447;-77
2022/09/22 03:53:34;;;;;;;0.70;0.63;;;6.80;99.90;;;;;;5115017;28;20470;-77
2022/09/22 03:56:05;;;;;;;0.50;0.30;;;6.80;99.90;;;;;;5114716;28;20435;-77
2022/09/22 03:58:35;;;;;;;1.43;0.40;;;6.80;99.90;;;;;;5114971;28;20438;-77
2022/09/22 04:01:02;;;;;;;0.50;0.47;;;6.80;99.90;;;;;;5114963;28;20450;-77
2022/09/22 04:03:28;;;;;;;0.50;0.47;;;6.80;99.90;;;;;;5114791;28;20474;-77
2022/09/22 04:05:55;;;;;;;1.80;0.50;;;6.70;99.90;;;;;;5114829;28;20455;-77
2022/09/22 04:08:22;;;;;;;0.90;0.60;;;6.80;99.90;;;;;;5114749;28;20450;-78
2022/09/22 04:10:49;;;;;;;0.30;0.30;;;6.60;99.90;;;;;;5114613;28;20479;-77
2022/09/22 04:13:15;;;;;;;0.40;0.40;;;6.60;99.90;;;;;;5114602;28;20463;-77
2022/09/22 04:15:45;;;;;;;0.50;0.30;;;6.50;99.90;;;;;;5113990;28;20837;-77
2022/09/22 04:18:13;;;;;;;0.40;0.33;;;6.50;99.90;;;;;;5114627;28;20201;-77
2022/09/22 04:20:41;;;;;;;0.30;0.30;;;6.50;99.90;;;;;;5114263;28;20937;-77
2022/09/22 04:23:08;;;;;;;0.93;0.40;;;6.50;99.90;;;;;;5114439;28;20313;-77
2022/09/22 04:25:35;;;;;;;0.43;0.43;;;6.40;99.90;;;;;;5114145;28;20447;-77
2022/09/22 04:28:02;;;;;;;0.60;0.40;;;6.40;99.90;;;;;;5114063;28;20479;-77
2022/09/22 04:30:29;;;;;;;0.30;0.30;;;6.40;99.90;;;;;;5113970;28;21023;-77
2022/09/22 04:32:58;;;;;;;0.40;0.40;;;6.30;99.90;;;;;;5114011;28;20474;-77
2022/09/22 04:35:25;;;;;;;0.30;0.30;;;6.30;99.90;;;;;;5114310;28;20500;-77
2022/09/22 04:37:52;;;;;;;0.38;0.38;;;6.30;99.90;;;;;;5114164;28;20942;-78
2022/09/22 04:40:19;;;;;;;0.33;0.30;;;6.20;99.90;;;;;;5113908;28;20279;-78
2022/09/22 04:42:46;;;;;;;0.30;0.30;;;6.20;99.90;;;;;;5114140;28;20808;-78
2022/09/22 04:45:13;;;;;;;0.30;0.30;;;6.20;99.90;;;;;;5114117;28;20809;-77
2022/09/22 04:47:40;;;;;;;0.67;0.67;;;6.30;99.90;;;;;;5113826;28;20448;-77
2022/09/22 04:50:09;;;;;;;0.40;0.40;;;6.30;99.90;;;;;;5113671;28;20474;-77
2022/09/22 04:52:36;;;;;;;0.40;0.30;;;6.30;99.90;;;;;;5113954;28;20867;-77
2022/09/22 04:55:02;;;;;;;0.30;0.30;;;6.30;99.90;;;;;;5114060;28;20200;-77
2022/09/22 04:57:29;;;;;;;0.30;0.30;;;6.30;99.90;;;;;;5113666;28;20201;-77
2022/09/22 04:59:56;;;;;;;0.57;0.30;;;6.30;99.90;;;;;;5113950;28;20449;-77
2022/09/22 05:02:23;;;;;;;0.37;0.30;;;6.30;99.90;;;;;;5113600;28;20957;-77
2022/09/22 05:04:50;;;;;;;0.30;0.30;;;6.20;99.90;;;;;;5113792;28;20467;-77
2022/09/22 05:07:18;;;;;;;0.97;0.50;;;6.20;99.90;;;;;;5113865;28;20451;-78
2022/09/22 05:09:44;;;;;;;0.53;0.53;;;6.20;99.90;;;;;;5113769;28;20471;-77
2022/09/22 05:12:11;;;;;;;0.50;0.30;;;6.20;99.90;;;;;;5113786;28;20496;-77
2022/09/22 05:14:38;;;;;;;0.57;0.57;;;6.20;99.90;;;;;;5113739;28;20478;-77
2022/09/22 05:17:05;;;;;;;1.00;0.40;;;6.20;99.90;;;;;;5113768;28;20446;-77
2022/09/22 05:19:32;;;;;;;1.33;1.23;;;6.20;99.90;;;;;;5113441;28;20926;-77
2022/09/22 05:21:59;;;;;;;0.40;0.40;;;6.20;99.90;;;;;;5113420;28;21011;-77
2022/09/22 05:24:27;;;;;;;1.33;0.60;;;6.20;99.90;;;;;;5113634;28;20521;-77
2022/09/22 05:26:54;;;;;;;0.33;0.30;;;6.20;99.90;;;;;;5114286;28;20780;-77
2022/09/22 05:29:20;;;;;;;0.60;0.60;;;6.20;99.90;;;;;;5117845;28;20455;-77
2022/09/22 05:31:47;;;;;;;0.40;0.40;;;6.20;99.90;;;;;;5118006;28;20811;-77
2022/09/22 05:34:14;;;;;;;1.13;0.50;;;6.20;99.90;;;;;;5117712;28;20470;-77
2022/09/22 05:36:41;;;;;;;0.70;0.40;;;6.20;99.90;;;;;;5117764;28;20439;-77
2022/09/22 05:39:07;;;;;;;0.50;0.50;;;6.20;99.90;;;;;;5118266;28;20800;-77
2022/09/22 05:41:35;;;;;;;0.40;0.40;;;6.10;99.90;;;;;;5117440;28;20431;-77
2022/09/22 05:44:02;;;;;;;0.60;0.60;;;6.20;99.90;;;;;;5117499;28;20467;-77
2022/09/22 05:46:29;;;;;;;0.30;0.30;;;6.20;99.90;;;;;;5117227;28;20438;-77
2022/09/22 05:48:55;;;;;;;0.70;0.38;;;6.20;99.90;;;;;;5117501;28;20449;-77
2022/09/22 05:51:22;;;;;;;0.37;0.33;;;6.20;99.90;;;;;;5117085;28;20217;-77
2022/09/22 05:53:49;;;;;;;0.30;0.30;;;6.20;99.90;;;;;;5117276;28;20470;-77
2022/09/22 05:56:15;;;;;;;0.30;0.30;;;6.30;99.90;;;;;;5117388;28;20205;-77
2022/09/22 05:58:44;;;;;;;0.50;0.50;;;6.30;99.90;;;;;;5117332;28;20450;-77
2022/09/22 06:01:11;;;;;;;0.30;0.25;;;6.30;99.90;;;;;;5117235;28;20446;-77
2022/09/22 06:03:37;;;;;;;0.40;0.40;;;6.30;99.90;;;;;;5117148;28;20221;-77
2022/09/22 06:06:04;;;;;;;0.50;0.50;;;6.30;99.90;;;;;;5117157;28;20438;-77
2022/09/22 06:08:31;;;;;;;1.05;0.95;;;6.30;99.90;;;;;;5117188;28;20450;-77
2022/09/22 06:10:58;;;;;;;0.30;0.30;;;6.40;99.90;;;;;;5117044;28;20334;-77
2022/09/22 06:13:24;;;;;;;1.60;0.67;;;6.50;99.90;;;;;;5116650;28;20467;-77
2022/09/22 06:15:52;;;;;;;0.50;0.50;;;6.90;99.90;;;;;;5116962;28;20438;-77
2022/09/22 06:18:19;;;;;;;0.50;0.33;;;7.90;99.90;;;;;;5116559;28;20977;-77
2022/09/22 06:20:46;;;;;;;0.53;0.40;;;9.10;99.90;;;;;;5116902;28;20490;-77
2022/09/22 06:23:14;;;;;;;0.70;0.70;;;10.00;99.90;;;;;;5116516;28;20501;-77
2022/09/22 06:25:41;;;;;;;0.50;0.50;;;10.00;99.90;;;;;;5116427;28;20964;-77
2022/09/22 06:28:10;;;;;;;1.77;0.83;;;9.80;99.90;;;;;;5116256;28;20481;-77
2022/09/22 06:30:38;;;;;;;0.70;0.50;;;9.40;99.90;;;;;;5116606;28;20485;-77
2022/09/22 06:33:07;;;;;;;0.50;0.40;;;9.00;99.90;;;;;;5116593;28;20463;-77
2022/09/22 06:35:36;;;;;;;2.90;0.50;;;8.60;99.90;;;;;;5116623;28;20446;-77
2022/09/22 06:38:04;;;;;;;0.60;0.60;;;8.40;99.90;;;;;;5116324;28;20450;-77
2022/09/22 06:40:32;;;;;;;0.50;0.37;;;8.20;99.90;;;;;;5116501;28;20858;-77
2022/09/22 06:43:00;;;;;;;0.30;0.30;;;8.10;99.90;;;;;;5116673;28;20519;-77
2022/09/22 06:45:30;;;;;;;0.50;0.43;;;8.10;99.90;;;;;;5116448;28;20454;-77
2022/09/22 06:47:59;;;;;;;0.50;0.50;;;8.00;99.90;;;;;;5116342;28;20451;-77
2022/09/22 06:50:29;;;;;;;0.67;0.67;;;8.10;99.90;;;;;;5116487;28;20479;-77
2022/09/22 06:52:58;;;;;;;0.63;0.60;;;8.10;99.90;;;;;;5115914;28;20566;-77
2022/09/22 06:55:26;;;;;;;1.07;0.60;;;8.20;99.90;;;;;;5116244;28;20486;-77
2022/09/22 06:57:52;;;;;;;0.50;0.50;;;8.30;99.90;;;;;;5115869;28;20811;-77
2022/09/22 07:00:19;;;;;;;0.40;0.30;;;8.40;99.90;;;;;;5116111;28;20439;-77
2022/09/22 07:02:46;;;;;;;1.27;0.50;;;8.50;99.90;;;;;;5115993;28;20447;-77
2022/09/22 07:05:16;;;;;;;0.40;0.30;;;8.60;99.90;;;;;;5115990;28;20451;-83
2022/09/22 07:07:44;;;;;;;0.60;0.53;;;8.70;99.90;;;;;;5116037;28;20201;-78
2022/09/22 07:10:11;;;;;;;1.60;0.47;;;8.80;99.90;;;;;;5116057;28;20475;-78
2022/09/22 07:12:37;;;;;;;0.50;0.43;;;9.00;99.90;;;;;;5114599;28;20950;-85
2022/09/22 07:15:05;;;;;;;0.90;0.60;;;9.10;99.90;;;;;;5114652;28;20428;-84
2022/09/22 07:17:34;;;;;;;0.80;0.60;;;9.20;99.90;;;;;;5115523;28;20439;-84
2022/09/22 07:20:03;;;;;;;0.50;0.50;;;9.20;99.90;;;;;;5115558;28;20443;-84
2022/09/22 07:22:30;;;;;;;0.83;0.67;;;9.30;99.90;;;;;;5114685;28;20451;-83
2022/09/22 07:25:01;;;;;;;0.50;0.40;;;9.40;99.90;;;;;;5115551;28;20467;-84
2022/09/22 07:27:27;;;;;;;0.50;0.50;;;9.50;99.90;;;;;;5115123;28;20522;-83
2022/09/22 07:29:56;;;;;;;0.50;0.40;;;9.60;99.90;;;;;;5115486;28;20447;-84
2022/09/22 07:32:23;;;;;;;0.70;0.70;;;9.60;99.90;;;;;;5115608;28;20496;-83
2022/09/22 07:34:51;;;;;;;0.70;0.67;;;9.80;99.90;;;;;;5115597;28;20466;-84
2022/09/22 07:37:18;;;;;;;1.27;1.27;;;9.90;99.90;;;;;;5116511;28;20503;-84
2022/09/22 07:39:45;;;;;;;0.60;0.40;;;10.00;99.90;;;;;;5121730;28;20489;-83
2022/09/22 07:42:13;;;;;;;0.93;0.60;;;10.20;99.90;;;;;;5116582;28;20445;-83
2022/09/22 07:50:05;;;;;;;0.60;0.60;;;10.50;99.90;;;;;;5113198;28;20950;-83
2022/09/22 07:52:32;;;;;;;2.10;0.73;;;10.70;99.90;;;;;;5114283;28;20458;-83
2022/09/22 07:54:59;;;;;;;0.53;0.50;;;10.80;99.90;;;;;;5114639;28;20484;-84
2022/09/22 07:57:29;;;;;;;0.57;0.40;;;10.90;99.90;;;;;;5115294;28;20450;-83
2022/09/22 07:59:56;;;;;;;0.50;0.50;;;11.00;99.90;;;;;;5115086;28;20205;-83
2022/09/22 08:02:27;;;;;;;0.60;0.50;;;11.20;99.90;;;;;;5115146;28;20475;-83
2022/09/22 08:04:54;;;;;;;0.37;0.37;;;11.40;99.90;;;;;;5114879;28;20466;-83
2022/09/22 08:07:21;;;;;;;1.93;0.60;;;11.60;99.90;;;;;;5114851;28;20853;-83
2022/09/22 08:09:48;;;;;;;0.50;0.43;;;11.70;99.90;;;;;;5114869;28;20439;-84
2022/09/22 08:12:15;;;;;;;0.50;0.50;;;11.90;99.90;;;;;;5114586;28;21009;-83
2022/09/22 08:14:45;;;;;;;0.40;0.40;;;12.10;99.90;;;;;;5115654;28;20899;-82
2022/09/22 08:17:11;;;;;;;0.60;0.60;;;12.30;99.90;;;;;;5114591;28;20447;-83
2022/09/22 08:19:38;;;;;;;0.50;0.40;;;12.40;99.90;;;;;;5114671;28;20207;-83
2022/09/22 08:22:05;;;;;;;0.40;0.30;;;12.60;99.90;;;;;;5114537;28;20439;-83
2022/09/22 08:24:33;;;;;;;0.30;0.30;;;12.70;99.90;;;;;;5114462;28;20466;-83
2022/09/22 08:27:00;;;;;;;0.80;0.50;;;12.90;99.90;;;;;;5113967;28;20993;-82
2022/09/22 08:29:26;;;;;;;1.43;0.93;;;13.00;99.90;;;;;;5114467;28;20434;-83
2022/09/22 08:31:55;;;;;;;0.63;0.63;;;13.10;99.90;;;;;;5114868;28;20513;-83
2022/09/22 08:34:22;;;;;;;0.40;0.40;;;13.20;99.90;;;;;;5114418;28;20848;-83
2022/09/22 08:36:48;;;;;;;0.40;0.40;;;13.30;99.90;;;;;;5114379;28;20454;-84
2022/09/22 08:39:16;;;;;;;0.30;0.30;;;13.50;99.90;;;;;;5112945;28;20444;-84
2022/09/22 08:41:56;;;;;;;0.40;0.40;;;13.50;99.90;;;;;;5114064;28;20443;-83
2022/09/22 08:44:27;;;;;;;1.98;1.13;;;13.50;99.90;;;;;;5113907;28;20474;-87
2022/09/22 08:46:59;;;;;;;0.50;0.50;;;13.70;99.90;;;;;;5114240;28;20185;-86
2022/09/22 08:52:24;;;;;;;0.50;0.40;;;13.80;99.90;;;;;;5128598;27;20954;-80
2022/09/22 08:54:51;;;;;;;0.40;0.30;;;13.90;99.90;;;;;;5119180;27;20467;-81
2022/09/22 08:57:55;;;;;;;0.30;0.30;;;14.20;99.90;;;;;;5130580;27;20443;-80
2022/09/22 09:00:23;;;;;;;0.40;0.40;;;14.40;99.90;;;;;;5117507;27;20482;-78
2022/09/22 09:03:01;;;;;;;0.70;0.40;;;14.60;99.90;;;;;;5121444;28;20807;-79
2022/09/22 09:06:00;;;;;;;0.60;0.50;;;14.90;99.90;;;;;;5113911;28;20430;-83
2022/09/22 09:08:44;;;;;;;0.47;0.40;;;15.10;99.90;;;;;;5113945;28;20489;-84
2022/09/22 09:11:25;;;;;;;0.60;0.60;;;15.40;99.90;;;;;;5113777;28;20474;-84
2022/09/22 09:14:08;;;;;;;1.63;0.80;;;15.50;99.90;;;;;;5113839;28;20462;-84
2022/09/22 09:16:44;;;;;;;0.50;0.50;;;15.60;99.90;;;;;;5114351;28;20427;-87
2022/09/22 09:19:17;;;;;;;0.50;0.50;;;15.70;99.90;;;;;;5113841;28;20435;-85
2022/09/22 09:21:50;;;;;;;0.60;0.60;;;15.80;99.90;;;;;;5113684;28;20430;-85
2022/09/22 09:24:26;;;;;;;0.40;0.40;;;15.80;99.90;;;;;;5113700;28;20612;-84
2022/09/22 09:26:57;;;;;;;0.50;0.43;;;15.80;99.90;;;;;;5113231;28;20890;-87
2022/09/22 09:29:26;;;;;;;0.40;0.40;;;15.90;99.90;;;;;;5113706;28;20438;-80
2022/09/22 09:31:55;;;;;;;0.40;0.40;;;16.00;99.90;;;;;;5113131;28;21035;-81
2022/09/22 09:34:27;;;;;;;0.57;0.57;;;16.00;99.90;;;;;;5113501;28;20469;-80
2022/09/22 09:37:06;;;;;;;0.40;0.40;;;16.10;99.90;;;;;;5115228;28;20921;-80
2022/09/22 09:39:36;;;;;;;0.50;0.43;;;16.10;99.90;;;;;;5118688;28;20442;-80
2022/09/22 09:42:15;;;;;;;1.77;0.70;;;16.50;99.90;;;;;;5126948;28;20435;-80
2022/09/22 09:44:43;;;;;;;0.50;0.40;;;16.80;99.90;;;;;;5123794;28;20560;-75
2022/09/22 09:47:20;;;;;;;1.13;0.63;;;17.00;99.90;;;;;;5132176;28;20227;-73
2022/09/22 09:49:50;;;;;;;0.80;0.50;;;17.00;99.90;;;;;;5132357;28;20453;-75
2022/09/22 09:52:17;;;;;;;2.73;0.70;;;17.00;99.90;;;;;;5116076;28;20480;-74
2022/09/22 09:54:46;;;;;;;0.40;0.30;;;17.00;99.90;;;;;;5114062;28;20982;-79
2022/09/22 09:57:14;;;;;;;1.20;0.60;;;17.00;99.90;;;;;;5113067;28;20995;-78
2022/09/22 10:02:29;;;;;;;2.10;0.67;;;16.80;99.90;;;;;;5117129;28;20460;-80
2022/09/22 10:04:59;;;;;;;0.40;0.40;;;16.80;99.90;;;;;;5113285;28;20459;-82
2022/09/22 10:07:29;;;;;;;0.50;0.50;;;16.90;99.90;;;;;;5113126;28;20445;-79
2022/09/22 10:10:16;;;;;;;0.60;0.40;;;17.10;99.90;;;;;;5113321;28;20447;-79
2022/09/22 10:12:43;;;;;;;0.40;0.40;;;17.50;99.90;;;;;;5125156;27;20469;-80
2022/09/22 10:15:23;;;;;;;0.80;0.57;;;18.00;99.90;;;;;;5130156;27;20939;-79
2022/09/22 10:17:50;;;;;;;0.40;0.40;;;18.10;99.90;;;;;;5117029;28;20419;-79
2022/09/22 10:20:23;;;;;;;0.80;0.60;;;18.20;99.90;;;;;;5118145;27;20446;-78
2022/09/22 10:22:50;;;;;;;1.60;0.60;;;17.90;99.90;;;;;;5120276;27;20458;-80
2022/09/22 10:25:23;;;;;;;0.60;0.60;;;17.70;99.90;;;;;;5136776;27;20469;-79
2022/09/22 10:28:01;;;;;;;0.60;0.40;;;17.50;99.90;;;;;;5135396;27;20480;-79
2022/09/22 10:30:31;;;;;;;1.42;0.60;;;17.30;99.90;;;;;;5137292;27;20442;-79
2022/09/22 10:33:20;;;;;;;0.67;0.47;;;17.40;99.90;;;;;;5117493;27;20217;-79
2022/09/22 10:36:02;;;;;;;0.60;0.60;;;17.60;99.90;;;;;;5110742;28;20945;-79
2022/09/22 10:38:33;;;;;;;0.60;0.60;;;18.00;99.90;;;;;;5120193;27;20430;-81
2022/09/22 10:41:06;;;;;;;0.50;0.50;;;18.20;99.90;;;;;;5124645;27;20944;-80
2022/09/22 10:43:42;;;;;;;0.40;0.40;;;18.30;99.90;;;;;;5116272;28;20512;-86
2022/09/22 10:46:42;;;;;;;0.40;0.40;;;18.60;99.80;;;;;;5128729;27;20797;-79
2022/09/22 10:49:15;;;;;;;0.75;0.40;;;19.00;98.30;;;;;;5127033;27;20431;-79
2022/09/22 10:51:58;;;;;;;0.40;0.40;;;19.20;98.30;;;;;;5117063;27;20209;-79
2022/09/22 10:54:41;;;;;;;0.50;0.50;;;19.10;98.10;;;;;;5123792;27;20801;-79
2022/09/22 10:57:23;;;;;;;2.30;0.50;;;18.70;98.30;;;;;;5136186;27;20495;-84
2022/09/22 11:00:08;;;;;;;0.70;0.50;;;18.30;98.80;;;;;;5120329;27;20476;-85
2022/09/22 11:03:06;;;;;;;0.40;0.40;;;18.00;98.90;;;;;;5135968;27;20430;-75
2022/09/22 11:14:28;;;;;;;0.50;0.50;;;16.90;99.70;;;;;;5115604;28;20462;-78
2022/09/22 11:17:15;;;;;;;1.40;0.70;;;16.80;99.10;;;;;;5116923;27;20189;-79
2022/09/22 11:19:59;;;;;;;1.13;0.70;;;16.70;99.10;;;;;;5116879;27;20212;-78
2022/09/22 11:22:38;;;;;;;0.70;0.40;;;16.70;99.90;;;;;;5115769;28;20431;-78
2022/09/22 11:25:21;;;;;;;0.60;0.53;;;16.70;99.80;;;;;;5114710;28;20435;-79
2022/09/22 11:28:02;;;;;;;0.50;0.50;;;16.70;99.80;;;;;;5115431;28;20566;-78
2022/09/22 11:30:33;;;;;;;0.73;0.47;;;16.70;99.90;;;;;;5115599;28;20454;-79
2022/09/22 11:33:17;;;;;;;0.40;0.30;;;16.70;99.90;;;;;;5115666;28;20475;-80
2022/09/22 11:36:22;;;;;;;0.53;0.50;;;16.80;99.50;;;;;;5115479;28;20424;-79
2022/09/22 11:39:05;;;;;;;0.50;0.40;;;16.80;99.70;;;;;;5096421;28;20950;-78
2022/09/22 11:41:40;;;;;;;0.60;0.43;;;16.80;99.10;;;;;;5115431;28;20614;-79
2022/09/22 11:44:37;;;;;;;0.60;0.50;;;16.80;99.20;;;;;;5114989;28;21036;-79
2022/09/22 11:47:32;;;;;;;0.40;0.40;;;16.70;98.80;;;;;;5115189;28;20470;-78
2022/09/22 11:50:40;;;;;;;0.50;0.50;;;16.60;98.50;;;;;;5115194;28;20446;-77
2022/09/22 11:53:36;;;;;;;0.40;0.40;;;16.60;98.50;;;;;;5114672;28;21032;-78
2022/09/22 11:56:37;;;;;;;1.33;0.70;;;16.60;98.60;;;;;;5106794;28;20451;-79
2022/09/22 11:59:10;;;;;;;1.60;0.60;;;16.50;97.60;;;;;;5012431;28;20893;-78
2022/09/22 12:01:39;;;;;;;0.40;0.40;;;16.40;98.40;;;;;;5098517;28;20447;-78
2022/09/22 12:04:23;;;;;;;0.57;0.57;;;16.40;98.50;;;;;;5115163;28;20454;-78
2022/09/22 12:06:54;;;;;;;0.47;0.47;;;16.30;98.80;;;;;;5115159;28;20416;-78
2022/09/22 12:09:31;;;;;;;0.30;0.30;;;16.30;98.00;;;;;;5114891;28;20450;-80
2022/09/22 12:12:02;;;;;;;0.40;0.40;;;16.20;97.20;;;;;;5114712;28;20473;-79
2022/09/22 12:14:31;;;;;;;0.40;0.40;;;16.30;97.60;;;;;;5114297;28;20467;-80
2022/09/22 12:17:01;;;;;;;2.50;0.50;;;16.30;96.90;;;;;;5114385;28;20204;-79
2022/09/22 12:19:38;;;;;;;0.97;0.60;;;16.30;97.40;;;;;;5114652;28;20424;-79
2022/09/22 12:22:11;;;;;;;0.83;0.40;;;16.30;97.90;;;;;;5114583;28;20423;-78
2022/09/22 12:24:38;;;;;;;0.50;0.40;;;16.30;97.20;;;;;;5114205;28;20997;-79
2022/09/22 12:27:20;;;;;;;0.50;0.40;;;16.20;97.20;;;;;;5114273;28;20491;-80
2022/09/22 12:29:54;;;;;;;0.40;0.30;;;16.30;96.60;;;;;;5114426;28;20469;-79
2022/09/22 12:32:23;;;;;;;0.40;0.40;;;16.20;95.80;;;;;;5114347;28;20459;-78
2022/09/22 12:34:52;;;;;;;0.87;0.70;;;16.00;96.70;;;;;;5114317;28;20527;-78
2022/09/22 12:37:28;;;;;;;0.87;0.40;;;15.90;96.50;;;;;;5113785;28;20462;-78
2022/09/22 12:39:56;;;;;;;0.40;0.40;;;15.90;97.00;;;;;;5114032;28;20456;-79
2022/09/22 12:42:29;;;;;;;1.63;1.53;;;15.90;97.20;;;;;;5113910;28;20672;-78
2022/09/22 12:44:59;;;;;;;0.80;0.43;;;15.90;97.70;;;;;;5114133;28;20474;-79
2022/09/22 12:47:32;;;;;;;0.40;0.40;;;16.00;96.30;;;;;;5114082;28;20451;-79
2022/09/22 12:50:01;;;;;;;0.70;0.40;;;15.90;97.10;;;;;;5114189;28;20467;-79
2022/09/22 12:52:53;;;;;;;0.40;0.40;;;16.00;97.10;;;;;;5113991;28;20522;-79
2022/09/22 12:55:28;;;;;;;4.20;0.40;;;15.90;96.90;;;;;;5113459;28;20485;-79
2022/09/22 12:57:58;;;;;;;1.27;0.40;;;15.90;97.20;;;;;;5114027;28;20427;-79
2022/09/22 13:00:33;;;;;;;0.40;0.40;;;15.90;96.80;;;;;;5113967;28;20450;-79
2022/09/22 13:03:01;;;;;;;1.23;1.13;;;16.00;96.00;;;;;;5113887;28;20466;-78
2022/09/22 13:05:39;;;;;;;0.40;0.40;;;15.90;96.50;;;;;;5113884;28;20443;-78
2022/09/22 13:08:05;;;;;;;0.40;0.40;;;15.90;96.50;;;;;;5114742;28;20435;-78
2022/09/22 13:10:52;;;;;;;0.37;0.30;;;15.80;96.90;;;;;;5114408;28;20450;-78
2022/09/22 13:13:35;;;;;;;0.50;0.40;;;15.80;96.10;;;;;;5113735;28;20483;-78
2022/09/22 13:16:03;;;;;;;0.40;0.40;;;15.80;96.00;;;;;;5113868;28;20873;-78
2022/09/22 13:18:33;;;;;;;0.40;0.30;;;15.70;96.50;;;;;;5113788;28;20451;-78
2022/09/22 13:21:01;;;;;;;0.40;0.30;;;15.80;95.70;;;;;;5113791;28;20790;-78
2022/09/22 13:23:29;;;;;;;0.30;0.30;;;15.70;95.70;;;;;;5113355;28;20489;-78
2022/09/22 13:26:05;;;;;;;0.40;0.33;;;15.70;96.40;;;;;;5113343;28;20820;-78
2022/09/22 13:28:33;;;;;;;0.65;0.40;;;15.70;96.40;;;;;;5113213;28;20994;-79
2022/09/22 13:31:02;;;;;;;1.27;0.97;;;15.80;95.50;;;;;;5113699;28;20227;-79
2022/09/22 13:33:33;;;;;;;0.50;0.40;;;15.90;95.70;;;;;;5113461;28;20490;-78